createdAt,value
2022-08-08T00:02:04.132Z,14.40
2022-08-08T00:07:31.117Z,14.38
2022-08-08T00:12:48.458Z,14.36
2022-08-08T00:18:13.152Z,14.34
2022-08-08T00:23:42.848Z,14.33
2022-08-08T00:28:53.338Z,14.32
2022-08-08T00:34:47.129Z,14.30
2022-08-08T00:41:12.384Z,14.28
2022-08-08T00:46:16.449Z,14.25
2022-08-08T00:51:44.178Z,14.23
2022-08-08T00:57:07.763Z,14.21
2022-08-08T01:03:53.987Z,14.21
2022-08-08T01:08:28.665Z,14.18
2022-08-08T01:13:58.169Z,14.17
2022-08-08T01:19:52.108Z,14.13
2022-08-08T01:24:54.258Z,14.10
2022-08-08T01:30:17.662Z,14.08
2022-08-08T01:35:41.082Z,14.06
2022-08-08T01:40:56.805Z,14.00
2022-08-08T01:46:10.146Z,13.92
2022-08-08T01:52:29.363Z,13.82
2022-08-08T01:57:24.762Z,13.77
2022-08-08T02:03:07.520Z,13.72
2022-08-08T02:08:56.152Z,13.70
2022-08-08T02:14:07.497Z,13.66
2022-08-08T02:19:41.935Z,13.65
2022-08-08T02:24:55.703Z,13.66
2022-08-08T02:30:27.943Z,13.62
2022-08-08T02:36:03.896Z,13.64
2022-08-08T02:42:03.525Z,13.64
2022-08-08T02:47:25.660Z,13.68
2022-08-08T02:52:52.525Z,13.70
2022-08-08T02:58:18.608Z,13.71
2022-08-08T03:05:02.701Z,13.66
2022-08-08T03:09:45.112Z,13.63
2022-08-08T03:15:59.450Z,13.65
2022-08-08T03:20:25.021Z,13.69
2022-08-08T03:25:34.152Z,13.70
2022-08-08T03:31:07.597Z,13.69
2022-08-08T03:36:19.990Z,13.65
2022-08-08T03:42:12.745Z,13.62
2022-08-08T03:46:57.567Z,13.74
2022-08-08T03:52:00.745Z,13.85
2022-08-08T03:58:31.854Z,14.01
2022-08-08T04:02:46.926Z,14.22
2022-08-08T04:07:50.866Z,14.29
2022-08-08T04:12:55.067Z,14.32
2022-08-08T04:17:58.941Z,14.46
2022-08-08T04:23:03.334Z,14.85
2022-08-08T04:28:36.863Z,15.32
2022-08-08T04:33:29.246Z,15.50
2022-08-08T04:39:20.381Z,15.75
2022-08-08T04:44:14.735Z,16.00
2022-08-08T04:49:18.995Z,16.12
2022-08-08T04:54:38.118Z,16.43
2022-08-08T04:59:44.399Z,16.81
2022-08-08T05:04:47.027Z,17.07
2022-08-08T05:09:50.773Z,17.30
2022-08-08T05:14:53.220Z,17.45
2022-08-08T05:20:11.691Z,17.49
2022-08-08T05:25:21.614Z,17.60
2022-08-08T05:30:28.208Z,17.75
2022-08-08T05:35:35.012Z,17.63
2022-08-08T05:40:55.801Z,17.38
2022-08-08T05:46:07.731Z,17.22
2022-08-08T05:51:20.344Z,17.27
2022-08-08T05:56:28.156Z,17.62
2022-08-08T06:01:52.821Z,18.17
2022-08-08T06:07:00.309Z,19.01
2022-08-08T06:12:05.130Z,20.18
2022-08-08T06:17:09.399Z,21.44
2022-08-08T06:22:36.788Z,22.29
2022-08-08T06:28:05.094Z,22.60
2022-08-08T06:33:17.588Z,22.68
2022-08-08T06:38:42.855Z,22.52
2022-08-08T06:43:57.140Z,22.40
2022-08-08T06:49:02.746Z,22.52
2022-08-08T06:54:22.590Z,22.85
2022-08-08T06:59:27.300Z,23.05
2022-08-08T07:04:54.598Z,23.31
2022-08-08T07:10:12.709Z,23.49
2022-08-08T07:15:31.950Z,23.69
2022-08-08T07:20:45.905Z,24.00
2022-08-08T07:25:54.591Z,24.47
2022-08-08T07:30:59.486Z,24.74
2022-08-08T07:36:02.399Z,24.79
2022-08-08T07:41:25.426Z,24.72
2022-08-08T07:46:36.667Z,24.81
2022-08-08T07:51:53.955Z,24.89
2022-08-08T07:57:11.516Z,25.14
2022-08-08T08:02:38.689Z,25.40
2022-08-08T08:08:07.855Z,25.49
2022-08-08T08:13:42.617Z,25.38
2022-08-08T08:18:58.081Z,25.39
2022-08-08T08:24:03.945Z,25.80
2022-08-08T08:29:06.763Z,25.93
2022-08-08T08:34:09.772Z,26.16
2022-08-08T08:39:17.375Z,26.50
2022-08-08T08:44:28.973Z,26.53
2022-08-08T08:49:34.792Z,26.56
2022-08-08T08:54:39.119Z,26.24
2022-08-08T09:00:01.607Z,25.95
2022-08-08T09:05:13.999Z,25.68
2022-08-08T09:10:33.850Z,25.60
2022-08-08T09:15:40.894Z,25.67
2022-08-08T09:21:57.977Z,25.68
2022-08-08T09:26:32.415Z,25.47
2022-08-08T09:32:05.140Z,25.62
2022-08-08T09:37:51.393Z,26.02
2022-08-08T09:42:44.457Z,26.56
2022-08-08T09:48:12.703Z,26.99
2022-08-08T09:53:32.909Z,27.66
2022-08-08T09:59:20.014Z,28.33
2022-08-08T10:04:41.912Z,28.95
2022-08-08T10:10:00.092Z,29.13
2022-08-08T10:15:17.449Z,29.49
2022-08-08T10:20:27.888Z,29.84
2022-08-08T10:25:57.077Z,29.49
2022-08-08T10:31:41.231Z,29.29
2022-08-08T10:36:45.373Z,29.23
2022-08-08T10:42:15.139Z,28.80
2022-08-08T10:47:20.769Z,28.35
2022-08-08T10:52:42.041Z,28.21
2022-08-08T10:57:53.163Z,28.18
2022-08-08T11:02:57.252Z,27.92
2022-08-08T11:08:30.742Z,27.65
2022-08-08T11:13:59.989Z,27.78
2022-08-08T11:19:18.048Z,27.76
2022-08-08T11:24:36.095Z,27.82
2022-08-08T11:29:58.152Z,27.81
2022-08-08T11:35:27.091Z,27.62
2022-08-08T11:40:53.063Z,28.00
2022-08-08T11:46:14.430Z,28.90
2022-08-08T11:51:38.245Z,29.26
2022-08-08T11:56:43.111Z,28.74
2022-08-08T12:02:05.083Z,28.18
2022-08-08T12:07:16.791Z,27.99
2022-08-08T12:12:28.491Z,28.06
2022-08-08T12:17:44.351Z,28.19
2022-08-08T12:22:54.032Z,28.05
2022-08-08T12:28:15.507Z,27.68
2022-08-08T12:33:18.716Z,27.45
2022-08-08T12:38:30.319Z,27.82
2022-08-08T12:43:47.600Z,28.29
2022-08-08T12:54:29.541Z,28.40
2022-08-08T12:59:44.713Z,28.33
2022-08-08T13:04:49.932Z,28.02
2022-08-08T13:10:05.062Z,27.98
2022-08-08T13:15:16.886Z,28.48
2022-08-08T13:20:22.102Z,28.73
2022-08-08T13:25:24.103Z,28.67
2022-08-08T13:30:28.272Z,29.06
2022-08-08T13:35:38.691Z,28.94
2022-08-08T13:40:46.039Z,28.18
2022-08-08T13:45:48.529Z,28.25
2022-08-08T13:50:55.039Z,28.75
2022-08-08T13:56:11.803Z,28.78
2022-08-08T14:01:18.983Z,28.55
2022-08-08T14:06:33.630Z,28.67
2022-08-08T14:11:38.048Z,29.31
2022-08-08T14:16:49.638Z,29.51
2022-08-08T14:21:54.016Z,29.59
2022-08-08T14:26:56.299Z,29.06
2022-08-08T14:32:09.164Z,28.15
2022-08-08T14:37:17.853Z,27.66
2022-08-08T14:42:37.197Z,27.45
2022-08-08T14:48:01.105Z,27.59
2022-08-08T14:53:06.313Z,27.58
2022-08-08T14:58:12.132Z,27.06
2022-08-08T15:03:18.980Z,26.81
2022-08-08T15:08:22.422Z,27.64
2022-08-08T15:13:40.658Z,28.34
2022-08-08T15:19:01.783Z,28.00
2022-08-08T15:24:04.074Z,27.33
2022-08-08T15:29:12.184Z,26.89
2022-08-08T15:34:18.527Z,26.97
2022-08-08T15:39:38.290Z,27.55
2022-08-08T15:44:42.501Z,28.07
2022-08-08T15:49:44.853Z,28.03
2022-08-08T15:54:51.779Z,27.98
2022-08-08T16:00:05.721Z,28.22
2022-08-08T16:05:17.123Z,28.54
2022-08-08T16:13:05.149Z,28.52
2022-08-08T16:16:18.127Z,28.22
2022-08-08T16:21:26.842Z,27.92
2022-08-08T16:26:46.176Z,27.65
2022-08-08T16:32:13.587Z,26.90
2022-08-08T16:37:47.415Z,26.20
2022-08-08T16:42:54.129Z,25.81
2022-08-08T16:47:56.482Z,25.67
2022-08-08T16:55:03.838Z,26.19
2022-08-08T16:58:34.310Z,26.34
2022-08-08T17:04:00.819Z,26.11
2022-08-08T17:08:58.525Z,25.58
2022-08-08T17:14:01.366Z,25.07
2022-08-08T17:19:03.918Z,24.69
2022-08-08T17:24:10.720Z,24.34
2022-08-08T17:29:33.406Z,23.93
2022-08-08T17:34:59.794Z,24.00
2022-08-08T17:40:06.372Z,24.45
2022-08-08T17:45:23.563Z,24.79
2022-08-08T17:50:26.341Z,24.89
2022-08-08T17:56:06.352Z,24.70
2022-08-08T18:00:54.327Z,24.53
2022-08-08T18:05:59.379Z,24.00
2022-08-08T18:11:03.618Z,23.32
2022-08-08T18:16:06.355Z,22.63
2022-08-08T18:21:10.866Z,22.03
2022-08-08T18:26:30.347Z,21.47
2022-08-08T18:31:32.551Z,20.97
2022-08-08T18:36:35.913Z,20.55
2022-08-08T18:41:58.241Z,20.18
2022-08-08T18:47:14.673Z,19.80
2022-08-08T18:52:18.754Z,19.52
2022-08-08T18:57:25.027Z,19.25
2022-08-08T19:02:32.598Z,19.00
2022-08-08T19:07:55.251Z,18.80
2022-08-08T19:13:04.844Z,18.61
2022-08-08T19:18:30.980Z,18.41
2022-08-08T19:23:35.622Z,18.22
2022-08-08T19:28:37.625Z,18.07
2022-08-08T19:34:04.487Z,17.92
2022-08-08T19:39:05.323Z,17.77
2022-08-08T19:44:12.836Z,17.61
2022-08-08T19:49:28.683Z,17.44
2022-08-08T19:54:39.498Z,17.28
2022-08-08T19:59:43.906Z,17.13
2022-08-08T20:04:46.061Z,17.01
2022-08-08T20:09:56.196Z,16.91
2022-08-08T20:14:59.903Z,16.79
2022-08-08T20:20:02.210Z,16.68
2022-08-08T20:25:04.815Z,16.58
2022-08-08T20:30:53.209Z,16.48
2022-08-08T20:35:59.531Z,16.37
2022-08-08T20:41:12.218Z,16.26
2022-08-08T20:46:25.687Z,16.17
2022-08-08T20:51:32.617Z,16.14
2022-08-08T20:57:17.008Z,16.08
2022-08-08T21:02:06.106Z,16.00
2022-08-08T21:07:15.796Z,15.92
2022-08-08T21:12:18.380Z,15.83
2022-08-08T21:17:27.101Z,15.74
2022-08-08T21:22:29.832Z,15.64
2022-08-08T21:28:05.913Z,15.60
2022-08-08T21:32:54.266Z,15.57
2022-08-08T21:38:04.034Z,15.53
2022-08-08T21:43:33.761Z,15.45
2022-08-08T21:48:51.970Z,15.34
2022-08-08T21:54:27.208Z,15.24
2022-08-08T21:59:16.918Z,15.15
2022-08-08T22:04:24.816Z,15.08
2022-08-08T22:09:40.799Z,14.98
2022-08-08T22:14:43.247Z,14.88
2022-08-08T22:20:12.322Z,14.77
2022-08-08T22:25:12.346Z,14.69
2022-08-08T22:30:29.671Z,14.66
2022-08-08T22:36:04.719Z,14.68
2022-08-08T22:40:54.291Z,14.70
2022-08-08T22:45:57.599Z,14.69
2022-08-08T22:51:00.007Z,14.68
2022-08-08T22:56:09.430Z,14.66
2022-08-08T23:01:16.676Z,14.63
2022-08-08T23:06:34.551Z,14.60
2022-08-08T23:12:28.676Z,14.59
2022-08-08T23:17:00.393Z,14.54
2022-08-08T23:22:08.044Z,14.49
2022-08-08T23:27:17.414Z,14.49
2022-08-08T23:32:34.655Z,14.50
2022-08-08T23:38:00.789Z,14.53
2022-08-08T23:43:02.848Z,14.57
2022-08-08T23:49:08.139Z,14.55
2022-08-08T23:54:05.517Z,14.50
2022-08-08T23:58:50.683Z,14.47
